Terminal Aerodrome Forecast
Issued by NWS

Home | Current Version | Previous Version | Text Only | Print | Product List | Glossary On
Versions: 1 2 3 4 5 6 7 8 9 10 11 12 13 14 15 16 17 18 19 20 21
000
FTUS44 KOHX 291740
TAFCKV
TAF
KCKV 291740Z 2918/3018 34007KT P6SM VCSH OVC013
     FM300800 29003KT 4SM BR BKN007
     FM301500 23003KT P6SM VCSH BKN015=

USA.gov is the U.S. government's official web portal to all federal, state and local government web resources and services.